Time;durP1;ratioP1;P1;durP2;ratioP2;P2;SDS_P1;SDS_P2;PMS_P1;PMS_P2;Temp;Humidity;BMP_temperature;BMP_pressure;BME280_temperature;BME280_humidity;BME280_pressure;Samples;Min_cycle;Max_cycle;Signal;HPM_P1;HPM_P2
2023/02/14 00:02:23;;;;;;;1.00;0.40;;;;;;;;;;5087959;28;20050;-62
2023/02/14 00:04:50;;;;;;;22.42;0.90;;;;;;;;;;5093552;28;20028;-62
2023/02/14 00:07:17;;;;;;;0.95;0.65;;;;;;;;;;5096467;28;20031;-60
2023/02/14 00:09:44;;;;;;;3.35;0.90;;;;;;;;;;5113743;28;20026;-61
2023/02/14 00:12:12;;;;;;;2.65;1.35;;;;;;;;;;5113774;28;20054;-61
2023/02/14 00:17:24;;;;;;;1.17;0.70;;;;;;;;;;5087941;28;20521;-62
2023/02/14 00:19:51;;;;;;;1.92;0.77;;;;;;;;;;5087944;28;20107;-61
2023/02/14 00:22:18;;;;;;;6.90;0.90;;;;;;;;;;5087803;28;20099;-61
2023/02/14 00:24:47;;;;;;;2.47;0.95;;;;;;;;;;5088047;28;20038;-61
2023/02/14 00:27:14;;;;;;;1.65;0.80;;;;;;;;;;5106647;28;20032;-61
2023/02/14 00:29:41;;;;;;;8.95;1.05;;;;;;;;;;5113562;28;20355;-61
2023/02/14 00:32:16;;;;;;;7.00;1.27;;;;;;;;;;5113432;28;20020;-61
2023/02/14 00:34:44;;;;;;;2.63;0.70;;;;;;;;;;5113596;28;20828;-61
2023/02/14 00:37:13;;;;;;;2.47;1.00;;;;;;;;;;5099465;28;20081;-61
2023/02/14 00:39:41;;;;;;;1.05;0.50;;;;;;;;;;5087648;28;20016;-61
2023/02/14 00:42:08;;;;;;;4.53;0.70;;;;;;;;;;5100087;28;20085;-61
2023/02/14 00:44:34;;;;;;;6.50;0.57;;;;;;;;;;5107434;28;20034;-62
2023/02/14 00:47:01;;;;;;;13.37;0.83;;;;;;;;;;5107436;28;20040;-61
2023/02/14 00:49:30;;;;;;;1.10;0.70;;;;;;;;;;5113074;28;20023;-61
2023/02/14 00:51:57;;;;;;;0.57;0.40;;;;;;;;;;5102350;28;20020;-61
2023/02/14 00:54:25;;;;;;;1.30;0.70;;;;;;;;;;5092743;28;20455;-61
2023/02/14 00:56:53;;;;;;;0.87;0.50;;;;;;;;;;5103093;28;20107;-61
2023/02/14 00:59:22;;;;;;;0.63;0.47;;;;;;;;;;5112582;28;20019;-61
2023/02/14 01:01:51;;;;;;;4.97;0.83;;;;;;;;;;5107430;28;20027;-61
2023/02/14 01:04:18;;;;;;;1.87;0.57;;;;;;;;;;5107768;28;20040;-61
2023/02/14 01:06:46;;;;;;;1.23;0.60;;;;;;;;;;5098172;28;20036;-61
2023/02/14 01:09:14;;;;;;;2.93;0.80;;;;;;;;;;5086908;28;20045;-61
2023/02/14 01:11:42;;;;;;;2.37;0.87;;;;;;;;;;5093573;28;20475;-61
2023/02/14 01:14:10;;;;;;;1.50;0.73;;;;;;;;;;5092091;28;20023;-61
2023/02/14 01:16:38;;;;;;;2.03;0.57;;;;;;;;;;5091802;28;20028;-62
2023/02/14 01:19:05;;;;;;;0.40;0.30;;;;;;;;;;5092152;28;20053;-61
2023/02/14 01:21:34;;;;;;;0.63;0.40;;;;;;;;;;5093377;28;20043;-63
2023/02/14 01:24:02;;;;;;;1.20;0.80;;;;;;;;;;5087099;28;20039;-62
2023/02/14 01:26:31;;;;;;;0.57;0.43;;;;;;;;;;5086769;28;20038;-63
2023/02/14 01:28:58;;;;;;;0.80;0.60;;;;;;;;;;5086935;28;20047;-62
2023/02/14 01:31:28;;;;;;;0.93;0.53;;;;;;;;;;5097470;28;20023;-62
2023/02/14 01:33:56;;;;;;;1.93;1.00;;;;;;;;;;5111910;28;20028;-62
2023/02/14 01:36:27;;;;;;;1.80;1.10;;;;;;;;;;5112528;28;20031;-62
2023/02/14 01:38:57;;;;;;;9.67;5.27;;;;;;;;;;5112491;28;20024;-62
2023/02/14 01:41:26;;;;;;;6.00;2.90;;;;;;;;;;5110666;28;20451;-62
2023/02/14 01:44:05;;;;;;;20.60;10.23;;;;;;;;;;5112465;28;20023;-62
2023/02/14 01:46:36;;;;;;;8.70;3.70;;;;;;;;;;5106946;28;20102;-62
2023/02/14 01:49:08;;;;;;;15.17;1.83;;;;;;;;;;5106424;28;20028;-62
2023/02/14 01:51:39;;;;;;;2.10;0.83;;;;;;;;;;5090554;28;20491;-62
2023/02/14 01:54:07;;;;;;;1.90;0.60;;;;;;;;;;5090773;28;20039;-62
2023/02/14 01:56:37;;;;;;;1.17;0.50;;;;;;;;;;5095897;28;20024;-62
2023/02/14 01:59:06;;;;;;;19.97;6.03;;;;;;;;;;5097008;28;20028;-62
2023/02/14 02:01:33;;;;;;;1.90;1.20;;;;;;;;;;5116419;28;20020;-62
2023/02/14 02:04:07;;;;;;;1.93;0.80;;;;;;;;;;5111451;28;20374;-62
2023/02/14 02:06:42;;;;;;;0.47;0.40;;;;;;;;;;5111530;28;20035;-62
2023/02/14 02:09:28;;;;;;;0.43;0.33;;;;;;;;;;5090148;28;20111;-61
2023/02/14 02:11:55;;;;;;;2.83;1.07;;;;;;;;;;5090390;28;20103;-61
2023/02/14 02:14:23;;;;;;;0.97;0.60;;;;;;;;;;5090128;28;20024;-62
2023/02/14 02:17:03;;;;;;;5.20;0.87;;;;;;;;;;5091814;28;20024;-61
2023/02/14 02:19:34;;;;;;;2.03;1.10;;;;;;;;;;5076020;28;20042;-62
2023/02/14 02:22:01;;;;;;;8.83;3.37;;;;;;;;;;5100989;28;20023;-61
2023/02/14 02:24:45;;;;;;;10.13;3.10;;;;;;;;;;5115965;28;20545;-61
2023/02/14 02:27:12;;;;;;;2.00;1.00;;;;;;;;;;5115648;28;20028;-61
2023/02/14 02:29:57;;;;;;;6.87;2.80;;;;;;;;;;5113650;28;20027;-61
2023/02/14 02:32:42;;;;;;;17.33;4.80;;;;;;;;;;5100365;28;20506;-62
2023/02/14 02:35:08;;;;;;;;;;;;;;;;;;5090426;28;20028;-62
2023/02/14 02:37:48;;;;;;;3.93;1.20;;;;;;;;;;5089734;28;19904;-61
2023/02/14 02:40:20;;;;;;;5.97;2.33;;;;;;;;;;5092326;28;20121;-61
2023/02/14 02:43:03;;;;;;;14.83;5.77;;;;;;;;;;5095394;28;20023;-61
2023/02/14 02:46:46;;;;;;;7.80;3.37;;;;;;;;;;5095078;28;20514;-61
2023/02/14 02:48:35;;;;;;;2.30;1.50;;;;;;;;;;5094682;28;20499;-61
2023/02/14 02:54:02;;;;;;;3.90;2.33;;;;;;;;;;5074771;28;20047;-61
2023/02/14 02:56:44;;;;;;;4.70;2.10;;;;;;;;;;5070980;28;20422;-61
2023/02/14 02:59:23;;;;;;;3.67;1.97;;;;;;;;;;5069056;28;20021;-61
2023/02/14 03:02:13;;;;;;;3.70;2.13;;;;;;;;;;5082816;28;20015;-61
2023/02/14 03:04:53;;;;;;;3.73;2.07;;;;;;;;;;5106002;28;20027;-61
2023/02/14 03:07:39;;;;;;;5.10;2.80;;;;;;;;;;5106642;28;20032;-61
2023/02/14 03:10:06;;;;;;;4.33;1.50;;;;;;;;;;5114755;28;20081;-60
2023/02/14 03:12:33;;;;;;;4.73;1.67;;;;;;;;;;5114942;28;20020;-60
2023/02/14 03:15:10;;;;;;;5.50;1.43;;;;;;;;;;5099237;28;20062;-60
2023/02/14 03:20:40;;;;;;;7.10;0.73;;;;;;;;;;5089047;28;20031;-60
2023/02/14 03:23:29;;;;;;;1.53;0.63;;;;;;;;;;5088683;28;20057;-61
2023/02/14 03:26:09;;;;;;;2.97;0.70;;;;;;;;;;5075988;28;20108;-60
2023/02/14 03:28:51;;;;;;;1.13;0.40;;;;;;;;;;5108364;28;20024;-61
2023/02/14 03:31:17;;;;;;;0.70;0.40;;;;;;;;;;5113785;28;20029;-61
2023/02/14 03:33:49;;;;;;;8.17;1.63;;;;;;;;;;5114755;28;20017;-61
2023/02/14 03:36:21;;;;;;;13.80;1.47;;;;;;;;;;5114399;28;20958;-60
2023/02/14 03:39:06;;;;;;;6.53;1.20;;;;;;;;;;5111826;28;20027;-60
2023/02/14 03:41:35;;;;;;;0.57;0.40;;;;;;;;;;5088932;28;20479;-60
2023/02/14 03:44:04;;;;;;;0.67;0.47;;;;;;;;;;5088587;28;20126;-61
2023/02/14 03:46:30;;;;;;;2.03;1.00;;;;;;;;;;5088683;28;20032;-61
2023/02/14 03:48:58;;;;;;;3.50;0.83;;;;;;;;;;5095160;28;20054;-61
2023/02/14 03:51:26;;;;;;;1.23;0.73;;;;;;;;;;5112327;28;20055;-60
2023/02/14 03:53:55;;;;;;;7.53;0.87;;;;;;;;;;5113981;28;20052;-60
2023/02/14 03:56:34;;;;;;;2.40;1.13;;;;;;;;;;5113679;28;20537;-61
2023/02/14 03:59:05;;;;;;;0.30;0.30;;;;;;;;;;5107224;28;20060;-60
2023/02/14 04:01:42;;;;;;;1.40;0.90;;;;;;;;;;5093839;28;20059;-60
2023/02/14 04:04:08;;;;;;;9.20;1.00;;;;;;;;;;5088592;28;20020;-60
2023/02/14 04:06:35;;;;;;;2.30;0.93;;;;;;;;;;5087861;28;20089;-61
2023/02/14 04:09:02;;;;;;;2.53;0.70;;;;;;;;;;5103349;28;20027;-60
2023/02/14 04:11:33;;;;;;;0.83;0.53;;;;;;;;;;5089931;28;20027;-61
2023/02/14 04:14:00;;;;;;;1.70;0.93;;;;;;;;;;5108706;28;20047;-60
2023/02/14 04:16:27;;;;;;;2.17;0.63;;;;;;;;;;5093284;28;20055;-60
2023/02/14 04:21:39;;;;;;;2.22;0.77;;;;;;;;;;5093322;28;20540;-61
2023/02/14 04:24:06;;;;;;;1.43;0.50;;;;;;;;;;5098870;28;20089;-61
2023/02/14 04:26:32;;;;;;;2.60;0.97;;;;;;;;;;5108038;28;20023;-60
2023/02/14 04:28:59;;;;;;;6.03;0.77;;;;;;;;;;5108038;28;20038;-61
2023/02/14 04:31:26;;;;;;;1.63;0.97;;;;;;;;;;5108057;28;20024;-60
2023/02/14 04:33:53;;;;;;;0.90;0.53;;;;;;;;;;5103785;28;20051;-60
2023/02/14 04:36:19;;;;;;;0.27;0.27;;;;;;;;;;5091698;28;20028;-60
2023/02/14 04:38:46;;;;;;;5.40;0.50;;;;;;;;;;5074305;28;20364;-61
2023/02/14 04:41:12;;;;;;;5.33;1.20;;;;;;;;;;5092936;28;20042;-60
2023/02/14 04:43:39;;;;;;;2.77;0.70;;;;;;;;;;5094051;28;20024;-60
2023/02/14 04:46:06;;;;;;;0.67;0.50;;;;;;;;;;5113059;28;20102;-61
2023/02/14 04:48:32;;;;;;;3.93;0.70;;;;;;;;;;5108812;28;20031;-60
2023/02/14 04:50:59;;;;;;;6.00;0.50;;;;;;;;;;5107828;28;20102;-60
2023/02/14 04:53:26;;;;;;;1.17;0.67;;;;;;;;;;5107837;28;20490;-60
2023/02/14 04:55:52;;;;;;;0.20;0.20;;;;;;;;;;5106103;28;20098;-60
2023/02/14 04:58:19;;;;;;;4.13;0.90;;;;;;;;;;5095175;28;20035;-61
2023/02/14 05:00:46;;;;;;;4.23;0.77;;;;;;;;;;5097579;28;20583;-61
2023/02/14 05:03:13;;;;;;;1.33;0.70;;;;;;;;;;5112919;28;20012;-61
2023/02/14 05:05:40;;;;;;;12.43;0.57;;;;;;;;;;5112949;28;20539;-60
2023/02/14 05:08:06;;;;;;;0.73;0.33;;;;;;;;;;5112747;28;20398;-61
2023/02/14 05:10:33;;;;;;;0.13;0.10;;;;;;;;;;5105438;28;20043;-61
2023/02/14 05:13:00;;;;;;;0.63;0.33;;;;;;;;;;5087085;28;20024;-60
2023/02/14 05:15:27;;;;;;;0.37;0.30;;;;;;;;;;5086693;28;20438;-61
2023/02/14 05:17:54;;;;;;;0.37;0.33;;;;;;;;;;5086911;28;20047;-60
2023/02/14 05:20:20;;;;;;;0.47;0.30;;;;;;;;;;5090942;28;20048;-60
2023/02/14 05:22:47;;;;;;;3.47;0.73;;;;;;;;;;5111155;28;20020;-61
2023/02/14 05:25:14;;;;;;;2.27;0.47;;;;;;;;;;5112658;28;20100;-61
2023/02/14 05:27:40;;;;;;;1.17;0.40;;;;;;;;;;5112548;28;20032;-60
2023/02/14 05:30:08;;;;;;;4.50;0.77;;;;;;;;;;5112219;28;20098;-60
2023/02/14 05:32:35;;;;;;;1.00;0.53;;;;;;;;;;5089511;28;20036;-62
2023/02/14 05:35:02;;;;;;;0.53;0.40;;;;;;;;;;5087837;28;20147;-60
2023/02/14 05:37:28;;;;;;;1.07;0.60;;;;;;;;;;5086739;28;20036;-61
2023/02/14 05:39:55;;;;;;;1.00;0.67;;;;;;;;;;5086924;28;20031;-60
2023/02/14 05:42:22;;;;;;;1.53;0.73;;;;;;;;;;5089213;28;20463;-61
2023/02/14 05:44:48;;;;;;;0.40;0.40;;;;;;;;;;5092125;28;20074;-60
2023/02/14 05:47:15;;;;;;;0.77;0.53;;;;;;;;;;5096084;28;20040;-61
2023/02/14 05:49:42;;;;;;;0.10;0.10;;;;;;;;;;5092000;28;20099;-60
2023/02/14 05:52:08;;;;;;;3.03;0.40;;;;;;;;;;5091891;28;20075;-61
2023/02/14 05:54:35;;;;;;;0.77;0.67;;;;;;;;;;5089629;28;20028;-60
2023/02/14 05:57:02;;;;;;;3.83;1.80;;;;;;;;;;5103562;28;20532;-60
2023/02/14 05:59:28;;;;;;;3.40;0.53;;;;;;;;;;5106995;28;20055;-60
2023/02/14 06:01:55;;;;;;;3.07;0.90;;;;;;;;;;5107135;28;20031;-60
2023/02/14 06:04:22;;;;;;;0.23;0.20;;;;;;;;;;5108386;28;20047;-60
2023/02/14 06:06:51;;;;;;;0.37;0.30;;;;;;;;;;5096675;28;20035;-60
2023/02/14 06:09:18;;;;;;;1.33;0.60;;;;;;;;;;5091758;28;20047;-60
2023/02/14 06:11:45;;;;;;;3.53;0.87;;;;;;;;;;5091861;28;20024;-60
2023/02/14 06:14:12;;;;;;;3.97;1.33;;;;;;;;;;5091831;28;20020;-60
2023/02/14 06:16:38;;;;;;;1.03;0.67;;;;;;;;;;5102970;28;20035;-61
2023/02/14 06:19:05;;;;;;;1.97;1.37;;;;;;;;;;5106788;28;20419;-60
2023/02/14 06:21:32;;;;;;;0.40;0.23;;;;;;;;;;5106419;28;20020;-61
2023/02/14 06:23:58;;;;;;;1.67;1.00;;;;;;;;;;5106835;28;20023;-60
2023/02/14 06:26:26;;;;;;;6.80;1.30;;;;;;;;;;5106990;28;20866;-61
2023/02/14 06:28:54;;;;;;;1.50;0.67;;;;;;;;;;5111738;28;20364;-60
2023/02/14 06:31:21;;;;;;;1.27;0.70;;;;;;;;;;5112165;28;20023;-60
2023/02/14 06:33:48;;;;;;;8.27;0.60;;;;;;;;;;5112125;28;20020;-60
2023/02/14 06:36:14;;;;;;;0.97;0.63;;;;;;;;;;5115693;28;20371;-60
2023/02/14 06:38:41;;;;;;;2.00;0.70;;;;;;;;;;5101811;28;20028;-60
2023/02/14 06:41:09;;;;;;;0.53;0.43;;;;;;;;;;5089780;28;20024;-60
2023/02/14 06:43:36;;;;;;;3.00;0.93;;;;;;;;;;5089752;28;20032;-60
2023/02/14 06:46:02;;;;;;;0.67;0.33;;;;;;;;;;5089875;28;20112;-60
2023/02/14 06:48:29;;;;;;;1.43;0.73;;;;;;;;;;5090344;28;20024;-61
2023/02/14 06:50:56;;;;;;;0.40;0.33;;;;;;;;;;5106630;28;20096;-60
2023/02/14 06:53:23;;;;;;;0.47;0.47;;;;;;;;;;5115351;28;20051;-61
2023/02/14 06:55:49;;;;;;;0.20;0.20;;;;;;;;;;5115164;28;20027;-60
2023/02/14 06:58:16;;;;;;;1.33;0.63;;;;;;;;;;5115489;28;20020;-60
2023/02/14 07:00:43;;;;;;;1.10;0.50;;;;;;;;;;5114428;28;20445;-60
2023/02/14 07:03:09;;;;;;;0.70;0.50;;;;;;;;;;5095080;28;20028;-60
2023/02/14 07:05:36;;;;;;;0.60;0.30;;;;;;;;;;5089584;28;20032;-60
2023/02/14 07:08:03;;;;;;;2.57;0.57;;;;;;;;;;5089638;28;20024;-60
2023/02/14 07:10:30;;;;;;;0.83;0.40;;;;;;;;;;5089048;28;20035;-61
2023/02/14 07:12:56;;;;;;;0.60;0.40;;;;;;;;;;5094491;28;20026;-60
2023/02/14 07:15:23;;;;;;;2.17;1.00;;;;;;;;;;5094346;28;20024;-60
2023/02/14 07:17:50;;;;;;;0.50;0.50;;;;;;;;;;5094317;28;20530;-60
2023/02/14 07:20:17;;;;;;;1.10;0.67;;;;;;;;;;5094344;28;20024;-61
2023/02/14 07:22:43;;;;;;;2.73;1.33;;;;;;;;;;5094329;28;20020;-60
2023/02/14 07:25:11;;;;;;;19.43;1.57;;;;;;;;;;5089017;28;20053;-60
2023/02/14 07:27:37;;;;;;;0.70;0.60;;;;;;;;;;5108396;28;20435;-60
2023/02/14 07:30:05;;;;;;;1.73;1.30;;;;;;;;;;5109360;28;20486;-60
2023/02/14 07:32:32;;;;;;;2.97;1.13;;;;;;;;;;5109378;28;20034;-60
2023/02/14 07:34:58;;;;;;;1.73;0.97;;;;;;;;;;5114085;28;20019;-60
2023/02/14 07:37:25;;;;;;;0.53;0.43;;;;;;;;;;5114357;28;20030;-61
2023/02/14 07:39:52;;;;;;;1.30;0.77;;;;;;;;;;5113453;28;20019;-61
2023/02/14 07:42:18;;;;;;;0.73;0.40;;;;;;;;;;5114529;28;20020;-60
2023/02/14 07:44:45;;;;;;;1.00;0.67;;;;;;;;;;5114019;28;20024;-60
2023/02/14 07:47:12;;;;;;;0.87;0.70;;;;;;;;;;5108109;28;20466;-60
2023/02/14 07:49:38;;;;;;;0.33;0.30;;;;;;;;;;5109003;28;20415;-61
2023/02/14 07:52:05;;;;;;;0.73;0.60;;;;;;;;;;5106742;28;20031;-60
2023/02/14 07:54:32;;;;;;;1.30;0.60;;;;;;;;;;5108532;28;20023;-60
2023/02/14 07:56:59;;;;;;;1.37;0.53;;;;;;;;;;5094886;28;20428;-60
2023/02/14 07:59:25;;;;;;;1.80;0.83;;;;;;;;;;5114163;28;20050;-60
2023/02/14 08:01:52;;;;;;;0.53;0.43;;;;;;;;;;5113652;28;20028;-60
2023/02/14 08:04:20;;;;;;;0.60;0.40;;;;;;;;;;5105502;28;20379;-60
2023/02/14 08:06:47;;;;;;;0.40;0.40;;;;;;;;;;5113826;28;20031;-60
2023/02/14 08:09:23;;;;;;;0.10;0.10;;;;;;;;;;5109065;28;20106;-61
2023/02/14 08:14:42;;;;;;;1.53;0.70;;;;;;;;;;5094749;28;20058;-60
2023/02/14 08:17:09;;;;;;;1.20;0.70;;;;;;;;;;5088028;28;20024;-60
2023/02/14 08:19:36;;;;;;;0.17;0.17;;;;;;;;;;5093025;28;20031;-60
2023/02/14 08:22:03;;;;;;;2.97;0.80;;;;;;;;;;5093178;28;20379;-60
2023/02/14 08:24:30;;;;;;;1.43;0.67;;;;;;;;;;5093417;28;20019;-60
2023/02/14 08:26:56;;;;;;;4.13;1.17;;;;;;;;;;5105799;28;20036;-60
2023/02/14 08:29:23;;;;;;;0.50;0.40;;;;;;;;;;5113432;28;20016;-60
2023/02/14 08:31:51;;;;;;;0.67;0.53;;;;;;;;;;5108140;28;20028;-60
2023/02/14 08:34:18;;;;;;;2.37;1.17;;;;;;;;;;5108119;28;20031;-60
2023/02/14 08:36:46;;;;;;;0.97;0.67;;;;;;;;;;5108121;28;20024;-60
2023/02/14 08:39:12;;;;;;;0.67;0.47;;;;;;;;;;5094991;28;20515;-60
2023/02/14 08:41:39;;;;;;;0.53;0.40;;;;;;;;;;5092052;28;20020;-60
2023/02/14 08:44:06;;;;;;;0.50;0.50;;;;;;;;;;5092562;28;20055;-60
2023/02/14 08:46:32;;;;;;;1.03;0.60;;;;;;;;;;5092845;28;20032;-59
2023/02/14 08:48:59;;;;;;;0.70;0.57;;;;;;;;;;5092796;28;20052;-60
2023/02/14 08:51:26;;;;;;;2.40;0.60;;;;;;;;;;5107205;28;20032;-61
2023/02/14 08:53:54;;;;;;;3.00;0.77;;;;;;;;;;5108148;28;20024;-60
2023/02/14 08:56:22;;;;;;;2.77;0.97;;;;;;;;;;5107225;28;20097;-61
2023/02/14 08:58:51;;;;;;;2.13;0.90;;;;;;;;;;5106969;28;20031;-60
2023/02/14 09:01:18;;;;;;;1.37;0.80;;;;;;;;;;5107376;28;20030;-60
2023/02/14 09:03:47;;;;;;;6.17;1.00;;;;;;;;;;5095523;28;20060;-60
2023/02/14 09:06:15;;;;;;;0.67;0.53;;;;;;;;;;5092469;28;20504;-60
2023/02/14 09:08:43;;;;;;;0.47;0.40;;;;;;;;;;5092516;28;20019;-60
2023/02/14 09:11:14;;;;;;;1.70;1.07;;;;;;;;;;5106646;28;20032;-60
2023/02/14 09:13:42;;;;;;;1.47;0.77;;;;;;;;;;5108160;28;20022;-60
2023/02/14 09:16:10;;;;;;;1.30;0.87;;;;;;;;;;5087333;28;20063;-59
2023/02/14 09:18:36;;;;;;;0.50;0.50;;;;;;;;;;5086888;28;20378;-63
2023/02/14 09:21:07;;;;;;;0.40;0.40;;;;;;;;;;5087164;28;20546;-60
2023/02/14 09:23:34;;;;;;;0.47;0.47;;;;;;;;;;5086768;28;20032;-60
2023/02/14 09:26:05;;;;;;;1.13;0.90;;;;;;;;;;5104301;28;20065;-59
2023/02/14 09:28:32;;;;;;;0.67;0.50;;;;;;;;;;5112080;28;20042;-60
2023/02/14 09:30:59;;;;;;;2.03;0.80;;;;;;;;;;5112705;28;20355;-60
2023/02/14 09:33:28;;;;;;;1.33;1.03;;;;;;;;;;5112699;28;20024;-60
2023/02/14 09:38:42;;;;;;;1.60;0.57;;;;;;;;;;5086537;28;20046;-60
2023/02/14 09:41:09;;;;;;;0.33;0.30;;;;;;;;;;5086883;28;20514;-60
2023/02/14 09:43:38;;;;;;;0.10;0.10;;;;;;;;;;5086969;28;20264;-60
2023/02/14 09:46:06;;;;;;;0.87;0.40;;;;;;;;;;5086756;28;20412;-60
2023/02/14 09:48:38;;;;;;;0.30;0.27;;;;;;;;;;5106221;28;20081;-60
2023/02/14 09:51:24;;;;;;;0.40;0.30;;;;;;;;;;5112651;28;20038;-60
2023/02/14 09:53:52;;;;;;;0.40;0.30;;;;;;;;;;5112547;28;20038;-60
2023/02/14 09:56:24;;;;;;;1.57;0.53;;;;;;;;;;5110591;28;20275;-60
2023/02/14 09:59:11;;;;;;;0.50;0.47;;;;;;;;;;5111744;28;20020;-60
2023/02/14 10:01:49;;;;;;;1.10;0.73;;;;;;;;;;5106852;28;20290;-60
2023/02/14 10:04:16;;;;;;;0.60;0.37;;;;;;;;;;5107149;28;20279;-60
2023/02/14 10:06:43;;;;;;;1.30;0.67;;;;;;;;;;5092587;28;20038;-60
2023/02/14 10:09:15;;;;;;;2.73;1.07;;;;;;;;;;5087953;28;20249;-60
2023/02/14 10:11:43;;;;;;;0.87;0.70;;;;;;;;;;5095409;28;20268;-60
2023/02/14 10:14:24;;;;;;;2.23;0.97;;;;;;;;;;5095403;28;20727;-61
2023/02/14 10:16:56;;;;;;;1.10;0.57;;;;;;;;;;5095624;28;20253;-61
2023/02/14 10:19:26;;;;;;;0.73;0.50;;;;;;;;;;5113765;28;20260;-60
2023/02/14 10:22:02;;;;;;;0.60;0.60;;;;;;;;;;5113517;28;20260;-60
2023/02/14 10:24:29;;;;;;;1.80;1.30;;;;;;;;;;5110535;28;20348;-60
2023/02/14 10:27:01;;;;;;;1.53;0.80;;;;;;;;;;5110336;28;20292;-60
2023/02/14 10:29:30;;;;;;;0.23;0.23;;;;;;;;;;5109680;28;20263;-60
2023/02/14 10:32:01;;;;;;;1.17;0.87;;;;;;;;;;5092296;28;20253;-60
2023/02/14 10:34:44;;;;;;;5.57;1.30;;;;;;;;;;5095163;28;20257;-60
2023/02/14 10:37:19;;;;;;;2.27;1.27;;;;;;;;;;5095405;28;20298;-60
2023/02/14 10:40:04;;;;;;;0.37;0.37;;;;;;;;;;5095217;28;20264;-60
2023/02/14 10:42:34;;;;;;;1.55;0.90;;;;;;;;;;5101535;28;20268;-60
2023/02/14 10:45:21;;;;;;;0.60;0.47;;;;;;;;;;5111416;28;20170;-60
2023/02/14 10:47:56;;;;;;;1.80;1.00;;;;;;;;;;5058712;28;20371;-60
2023/02/14 10:50:39;;;;;;;5.17;0.90;;;;;;;;;;5109845;28;20252;-60
2023/02/14 10:53:11;;;;;;;1.70;0.40;;;;;;;;;;5109919;28;20301;-60
2023/02/14 10:55:49;;;;;;;4.63;0.60;;;;;;;;;;5097775;28;20731;-60
2023/02/14 10:58:17;;;;;;;0.73;0.63;;;;;;;;;;5095015;28;20638;-60
2023/02/14 11:00:52;;;;;;;0.73;0.60;;;;;;;;;;5104137;28;20817;-60
2023/02/14 11:03:19;;;;;;;1.87;0.90;;;;;;;;;;5099938;28;20271;-60
2023/02/14 11:05:47;;;;;;;0.70;0.50;;;;;;;;;;5093769;28;20025;-60
2023/02/14 11:08:15;;;;;;;0.90;0.60;;;;;;;;;;5089280;28;20292;-60
2023/02/14 11:10:42;;;;;;;1.97;0.93;;;;;;;;;;5089123;28;20809;-60
2023/02/14 11:13:26;;;;;;;0.20;0.20;;;;;;;;;;5101925;28;20276;-60
2023/02/14 11:15:53;;;;;;;0.40;0.40;;;;;;;;;;5087325;28;20293;-60
2023/02/14 11:18:24;;;;;;;0.50;0.50;;;;;;;;;;5094273;28;20741;-60
2023/02/14 11:21:11;;;;;;;0.77;0.63;;;;;;;;;;5094381;28;20296;-60
2023/02/14 11:23:40;;;;;;;0.13;0.13;;;;;;;;;;5094356;28;20296;-60
2023/02/14 11:26:20;;;;;;;9.53;0.93;;;;;;;;;;5112910;28;20276;-60
2023/02/14 11:28:52;;;;;;;0.53;0.40;;;;;;;;;;5112177;28;20689;-59
2023/02/14 11:31:28;;;;;;;0.50;0.40;;;;;;;;;;5109268;28;20253;-59
2023/02/14 11:33:55;;;;;;;0.77;0.50;;;;;;;;;;5109183;28;20762;-60
2023/02/14 11:36:22;;;;;;;0.47;0.40;;;;;;;;;;5102121;28;20311;-59
2023/02/14 11:39:03;;;;;;;12.70;5.70;;;;;;;;;;5091336;28;20260;-60
2023/02/14 11:41:45;;;;;;;3.33;1.33;;;;;;;;;;5094313;28;20746;-59
2023/02/14 11:44:21;;;;;;;1.00;0.60;;;;;;;;;;5094309;28;20302;-59
2023/02/14 11:46:48;;;;;;;;;;;;;;;;;;5094121;28;20361;-60
2023/02/14 11:49:28;;;;;;;1.77;1.23;;;;;;;;;;5108344;28;20005;-60
2023/02/14 11:51:56;;;;;;;2.00;0.97;;;;;;;;;;5109533;28;20637;-60
2023/02/14 11:54:43;;;;;;;2.80;1.40;;;;;;;;;;5108834;28;20666;-60
2023/02/14 11:57:22;;;;;;;1.13;0.90;;;;;;;;;;5089670;28;20702;-60
2023/02/14 11:59:52;;;;;;;3.73;1.60;;;;;;;;;;5087860;28;20272;-60
2023/02/14 12:02:23;;;;;;;1.67;0.93;;;;;;;;;;5100771;28;20271;-60
2023/02/14 12:04:52;;;;;;;3.20;1.47;;;;;;;;;;5114083;28;20252;-60
2023/02/14 12:07:21;;;;;;;1.23;0.90;;;;;;;;;;5113657;28;20372;-60
2023/02/14 12:09:49;;;;;;;0.70;0.60;;;;;;;;;;5113766;28;20773;-60
2023/02/14 12:12:18;;;;;;;2.50;1.20;;;;;;;;;;5093622;28;20375;-60
2023/02/14 12:14:44;;;;;;;1.70;0.77;;;;;;;;;;5087867;28;20264;-60
2023/02/14 12:17:12;;;;;;;1.23;0.70;;;;;;;;;;5088157;28;20252;-59
2023/02/14 12:19:51;;;;;;;1.03;0.93;;;;;;;;;;5088088;28;20646;-60
2023/02/14 12:22:29;;;;;;;1.07;0.73;;;;;;;;;;5106170;28;20753;-60
2023/02/14 12:25:10;;;;;;;0.70;0.43;;;;;;;;;;5113141;28;20658;-60
2023/02/14 12:27:45;;;;;;;0.40;0.33;;;;;;;;;;5093234;28;20292;-59
2023/02/14 12:30:15;;;;;;;0.77;0.60;;;;;;;;;;5093142;28;20257;-60
2023/02/14 12:32:50;;;;;;;2.10;0.87;;;;;;;;;;5092652;28;20275;-61
2023/02/14 12:35:26;;;;;;;0.95;0.63;;;;;;;;;;5092430;28;20345;-61
2023/02/14 12:38:12;;;;;;;0.50;0.47;;;;;;;;;;5093071;28;20028;-60
2023/02/14 12:40:50;;;;;;;1.30;0.65;;;;;;;;;;5092944;28;20753;-60
2023/02/14 12:43:28;;;;;;;0.83;0.73;;;;;;;;;;5107569;28;20089;-61
2023/02/14 12:45:55;;;;;;;1.37;0.97;;;;;;;;;;5110567;28;20251;-61
2023/02/14 12:48:34;;;;;;;42.07;2.93;;;;;;;;;;5112999;28;20285;-62
2023/02/14 12:51:09;;;;;;;1.50;1.00;;;;;;;;;;5104608;28;20816;-60
2023/02/14 12:53:46;;;;;;;0.83;0.70;;;;;;;;;;5092786;28;20253;-61
2023/02/14 12:56:31;;;;;;;8.60;1.07;;;;;;;;;;5092702;28;20331;-60
2023/02/14 12:59:01;;;;;;;1.98;0.55;;;;;;;;;;5086692;28;20252;-60
2023/02/14 13:01:36;;;;;;;4.63;0.73;;;;;;;;;;5087212;28;20085;-61
2023/02/14 13:04:12;;;;;;;3.13;1.60;;;;;;;;;;5102855;28;20260;-60
2023/02/14 13:06:47;;;;;;;1.70;0.60;;;;;;;;;;5088962;28;20292;-60
2023/02/14 13:09:43;;;;;;;4.85;0.93;;;;;;;;;;5112514;28;20248;-60
2023/02/14 13:12:19;;;;;;;0.50;0.50;;;;;;;;;;5091655;28;20092;-60
2023/02/14 13:15:05;;;;;;;0.30;0.30;;;;;;;;;;5105307;28;20020;-60
2023/02/14 13:17:49;;;;;;;1.37;1.10;;;;;;;;;;5093398;28;20864;-60
2023/02/14 13:20:33;;;;;;;1.70;0.83;;;;;;;;;;5069335;28;20261;-61
2023/02/14 13:23:04;;;;;;;1.08;0.70;;;;;;;;;;5076073;28;20263;-60
2023/02/14 13:25:34;;;;;;;4.87;0.97;;;;;;;;;;5107241;28;20035;-60
2023/02/14 13:28:03;;;;;;;1.57;0.97;;;;;;;;;;5107056;28;20688;-62
2023/02/14 13:30:31;;;;;;;1.60;0.90;;;;;;;;;;5072697;28;20627;-60
2023/02/14 13:33:01;;;;;;;8.80;1.60;;;;;;;;;;5092267;28;20252;-60
2023/02/14 13:35:29;;;;;;;2.60;1.30;;;;;;;;;;5091626;28;20291;-60
2023/02/14 13:37:57;;;;;;;2.60;1.47;;;;;;;;;;5092266;28;20332;-61
2023/02/14 13:40:26;;;;;;;12.70;2.90;;;;;;;;;;5094205;28;20592;-61
2023/02/14 13:42:54;;;;;;;5.27;1.80;;;;;;;;;;5089177;28;20261;-60
2023/02/14 13:45:39;;;;;;;6.50;2.00;;;;;;;;;;5090407;28;20268;-61
2023/02/14 13:48:10;;;;;;;2.60;1.75;;;;;;;;;;5090724;28;20292;-61
2023/02/14 13:50:39;;;;;;;13.77;4.20;;;;;;;;;;5090508;28;20024;-61
2023/02/14 13:53:05;;;;;;;10.77;2.47;;;;;;;;;;5094972;28;20764;-61
2023/02/14 13:55:34;;;;;;;9.20;2.33;;;;;;;;;;5115123;28;20329;-61
2023/02/14 13:58:06;;;;;;;13.30;2.03;;;;;;;;;;5116569;28;20263;-61
2023/02/14 14:00:37;;;;;;;11.13;2.17;;;;;;;;;;5116268;28;20251;-61
2023/02/14 14:03:05;;;;;;;2.73;1.27;;;;;;;;;;5116183;28;20248;-61
2023/02/14 14:05:31;;;;;;;34.83;3.20;;;;;;;;;;5106471;28;20265;-61
2023/02/14 14:08:16;;;;;;;7.87;2.30;;;;;;;;;;5090205;28;20285;-61
2023/02/14 14:10:48;;;;;;;12.55;1.85;;;;;;;;;;5089914;28;20442;-60
2023/02/14 14:13:33;;;;;;;6.67;2.37;;;;;;;;;;5095045;28;20648;-61
2023/02/14 14:16:18;;;;;;;3.78;1.58;;;;;;;;;;5097854;28;20387;-61
2023/02/14 14:18:45;;;;;;;5.10;2.05;;;;;;;;;;5115941;28;20486;-61
2023/02/14 14:21:15;;;;;;;15.63;2.40;;;;;;;;;;5115947;28;20111;-61
2023/02/14 14:23:42;;;;;;;15.30;4.50;;;;;;;;;;5107667;28;20405;-61
2023/02/14 14:26:30;;;;;;;16.63;4.83;;;;;;;;;;5093922;28;20054;-61
2023/02/14 14:28:57;;;;;;;7.80;4.77;;;;;;;;;;5089599;28;20077;-61
2023/02/14 14:31:23;;;;;;;14.47;6.60;;;;;;;;;;5095775;28;20059;-62
2023/02/14 14:33:57;;;;;;;11.03;6.03;;;;;;;;;;5110238;28;20028;-62
2023/02/14 14:36:25;;;;;;;11.37;6.03;;;;;;;;;;5111993;28;20026;-62
2023/02/14 14:38:55;;;;;;;7.53;4.03;;;;;;;;;;5097687;28;20032;-61
2023/02/14 14:41:31;;;;;;;7.20;3.93;;;;;;;;;;5109940;28;20042;-61
2023/02/14 14:43:58;;;;;;;6.23;3.27;;;;;;;;;;5095138;28;20095;-62
2023/02/14 14:46:25;;;;;;;15.67;4.10;;;;;;;;;;5095018;28;20028;-62
2023/02/14 14:48:56;;;;;;;6.80;3.27;;;;;;;;;;5092451;28;20417;-62
2023/02/14 14:51:30;;;;;;;4.20;2.20;;;;;;;;;;5089723;28;20370;-62
2023/02/14 14:54:06;;;;;;;6.63;2.27;;;;;;;;;;5100931;28;20041;-62
2023/02/14 14:56:35;;;;;;;1.73;1.13;;;;;;;;;;5109537;28;20027;-61
2023/02/14 14:59:17;;;;;;;14.17;1.47;;;;;;;;;;5112458;28;20617;-61
2023/02/14 15:01:44;;;;;;;3.73;1.70;;;;;;;;;;5101231;28;20027;-62
2023/02/14 15:04:11;;;;;;;4.00;1.77;;;;;;;;;;5076629;28;20502;-62
2023/02/14 15:06:38;;;;;;;7.27;2.00;;;;;;;;;;5094779;28;20440;-62
2023/02/14 15:09:15;;;;;;;2.83;1.67;;;;;;;;;;5094596;28;20146;-63
2023/02/14 15:14:29;;;;;;;4.57;1.90;;;;;;;;;;5089125;28;20039;-62
2023/02/14 15:17:03;;;;;;;2.40;1.23;;;;;;;;;;5088824;28;20383;-62
2023/02/14 15:19:36;;;;;;;3.05;1.20;;;;;;;;;;5088860;28;20482;-62
2023/02/14 15:22:18;;;;;;;7.63;1.33;;;;;;;;;;5075265;28;20031;-62
2023/02/14 15:24:44;;;;;;;8.13;1.50;;;;;;;;;;5113358;28;20096;-62